sensor_id;sensor_type;location;lat;lon;timestamp;pressure;altitude;pressure_sealevel;temperature;humidity
66396;BME280;53207;51.378;-1.342;2022-12-29T00:01:42;98084.39;;;23.63;30.39
66396;BME280;53207;51.378;-1.342;2022-12-29T00:04:12;98078.36;;;23.62;30.32
66396;BME280;53207;51.378;-1.342;2022-12-29T00:06:39;98069.69;;;23.00;30.33
66396;BME280;53207;51.378;-1.342;2022-12-29T00:09:06;98065.14;;;23.18;30.40
66396;BME280;53207;51.378;-1.342;2022-12-29T00:11:34;98059.72;;;23.20;30.49
66396;BME280;53207;51.378;-1.342;2022-12-29T00:14:01;98053.51;;;23.15;30.42
66396;BME280;53207;51.378;-1.342;2022-12-29T00:16:29;98046.55;;;22.86;30.43
66396;BME280;53207;51.378;-1.342;2022-12-29T00:18:57;98040.58;;;23.29;30.48
66396;BME280;53207;51.378;-1.342;2022-12-29T00:21:25;98051.98;;;22.81;30.46
66396;BME280;53207;51.378;-1.342;2022-12-29T00:23:53;98048.31;;;23.17;30.59
66396;BME280;53207;51.378;-1.342;2022-12-29T00:26:20;98034.65;;;22.62;30.59
66396;BME280;53207;51.378;-1.342;2022-12-29T00:28:47;98044.03;;;22.66;30.60
66396;BME280;53207;51.378;-1.342;2022-12-29T00:31:14;98036.66;;;23.20;30.56
66396;BME280;53207;51.378;-1.342;2022-12-29T00:33:42;98034.17;;;22.93;30.54
66396;BME280;53207;51.378;-1.342;2022-12-29T00:36:11;98032.32;;;23.09;30.55
66396;BME280;53207;51.378;-1.342;2022-12-29T00:38:42;98011.05;;;23.03;30.66
66396;BME280;53207;51.378;-1.342;2022-12-29T00:41:12;98026.40;;;23.10;30.56
66396;BME280;53207;51.378;-1.342;2022-12-29T00:43:39;98025.86;;;23.25;30.47
66396;BME280;53207;51.378;-1.342;2022-12-29T00:46:06;98012.93;;;22.87;30.49
66396;BME280;53207;51.378;-1.342;2022-12-29T00:48:33;98018.84;;;22.98;30.58
66396;BME280;53207;51.378;-1.342;2022-12-29T00:51:01;98023.20;;;23.02;30.58
66396;BME280;53207;51.378;-1.342;2022-12-29T00:53:28;98026.76;;;23.12;30.51
66396;BME280;53207;51.378;-1.342;2022-12-29T00:55:55;98027.98;;;22.91;30.46
66396;BME280;53207;51.378;-1.342;2022-12-29T00:58:22;98028.36;;;23.01;30.56
66396;BME280;53207;51.378;-1.342;2022-12-29T01:00:50;98026.79;;;23.36;30.53
66396;BME280;53207;51.378;-1.342;2022-12-29T01:03:17;98024.89;;;22.85;30.45
66396;BME280;53207;51.378;-1.342;2022-12-29T01:05:44;98021.44;;;23.13;30.44
66396;BME280;53207;51.378;-1.342;2022-12-29T01:08:11;98015.99;;;22.97;30.59
66396;BME280;53207;51.378;-1.342;2022-12-29T01:10:39;98006.20;;;23.04;30.49
66396;BME280;53207;51.378;-1.342;2022-12-29T01:13:06;98005.63;;;23.13;30.46
66396;BME280;53207;51.378;-1.342;2022-12-29T01:15:33;97999.57;;;23.06;30.44
66396;BME280;53207;51.378;-1.342;2022-12-29T01:18:01;97993.92;;;23.12;30.35
66396;BME280;53207;51.378;-1.342;2022-12-29T01:20:28;97983.93;;;23.10;30.42
66396;BME280;53207;51.378;-1.342;2022-12-29T01:22:55;97996.84;;;22.91;30.35
66396;BME280;53207;51.378;-1.342;2022-12-29T01:25:22;97986.24;;;22.97;30.38
66396;BME280;53207;51.378;-1.342;2022-12-29T01:27:50;97989.22;;;23.20;30.45
66396;BME280;53207;51.378;-1.342;2022-12-29T01:30:17;97984.88;;;22.97;30.48
66396;BME280;53207;51.378;-1.342;2022-12-29T01:32:44;97982.01;;;23.00;30.44
66396;BME280;53207;51.378;-1.342;2022-12-29T01:35:11;97985.50;;;22.97;30.51
66396;BME280;53207;51.378;-1.342;2022-12-29T01:37:39;97981.95;;;22.97;30.45
66396;BME280;53207;51.378;-1.342;2022-12-29T01:40:07;97981.65;;;22.95;30.45
66396;BME280;53207;51.378;-1.342;2022-12-29T01:42:34;97976.06;;;22.94;30.44
66396;BME280;53207;51.378;-1.342;2022-12-29T01:45:03;97977.38;;;22.94;30.37
66396;BME280;53207;51.378;-1.342;2022-12-29T01:47:37;97979.56;;;22.63;30.44
66396;BME280;53207;51.378;-1.342;2022-12-29T01:50:08;97974.98;;;22.87;30.52
66396;BME280;53207;51.378;-1.342;2022-12-29T01:52:40;97966.45;;;22.83;30.52
66396;BME280;53207;51.378;-1.342;2022-12-29T01:55:11;97965.91;;;22.87;30.50
66396;BME280;53207;51.378;-1.342;2022-12-29T01:57:42;97973.96;;;22.84;30.46
66396;BME280;53207;51.378;-1.342;2022-12-29T02:00:13;97975.83;;;22.83;30.47
66396;BME280;53207;51.378;-1.342;2022-12-29T02:02:42;97985.80;;;22.81;30.48
66396;BME280;53207;51.378;-1.342;2022-12-29T02:05:18;97979.77;;;22.80;30.56
66396;BME280;53207;51.378;-1.342;2022-12-29T02:07:48;97982.26;;;22.76;30.52
66396;BME280;53207;51.378;-1.342;2022-12-29T02:10:15;97978.11;;;22.75;30.47
66396;BME280;53207;51.378;-1.342;2022-12-29T02:12:42;97966.59;;;22.65;30.56
66396;BME280;53207;51.378;-1.342;2022-12-29T02:15:10;97969.48;;;22.68;30.57
66396;BME280;53207;51.378;-1.342;2022-12-29T02:17:50;97967.23;;;22.68;30.50
66396;BME280;53207;51.378;-1.342;2022-12-29T02:20:49;97971.42;;;22.82;30.43
66396;BME280;53207;51.378;-1.342;2022-12-29T02:25:13;97962.58;;;22.77;30.44
66396;BME280;53207;51.378;-1.342;2022-12-29T02:27:57;97970.97;;;22.78;30.44
66396;BME280;53207;51.378;-1.342;2022-12-29T02:30:40;97980.97;;;22.66;30.43
66396;BME280;53207;51.378;-1.342;2022-12-29T02:33:19;97975.70;;;23.07;30.38
66396;BME280;53207;51.378;-1.342;2022-12-29T02:35:54;97975.48;;;22.65;30.43
66396;BME280;53207;51.378;-1.342;2022-12-29T02:38:33;97974.01;;;22.70;30.42
66396;BME280;53207;51.378;-1.342;2022-12-29T02:41:08;97969.56;;;22.89;30.41
66396;BME280;53207;51.378;-1.342;2022-12-29T02:43:40;97983.30;;;22.93;30.37
66396;BME280;53207;51.378;-1.342;2022-12-29T02:46:17;97988.80;;;22.52;30.49
66396;BME280;53207;51.378;-1.342;2022-12-29T02:48:50;97990.22;;;22.60;30.49
66396;BME280;53207;51.378;-1.342;2022-12-29T02:51:25;97993.63;;;22.90;30.43
66396;BME280;53207;51.378;-1.342;2022-12-29T02:53:55;97979.84;;;22.62;30.48
66396;BME280;53207;51.378;-1.342;2022-12-29T02:56:23;97994.90;;;22.65;30.52
66396;BME280;53207;51.378;-1.342;2022-12-29T02:58:50;97993.01;;;22.55;30.50
66396;BME280;53207;51.378;-1.342;2022-12-29T03:01:26;97993.91;;;22.51;30.47
66396;BME280;53207;51.378;-1.342;2022-12-29T03:04:08;98003.91;;;22.44;30.49
66396;BME280;53207;51.378;-1.342;2022-12-29T03:06:46;98003.33;;;22.68;30.53
66396;BME280;53207;51.378;-1.342;2022-12-29T03:09:24;98011.30;;;22.37;30.59
66396;BME280;53207;51.378;-1.342;2022-12-29T03:11:59;98009.29;;;22.63;30.57
66396;BME280;53207;51.378;-1.342;2022-12-29T03:14:31;98008.69;;;22.32;30.61
66396;BME280;53207;51.378;-1.342;2022-12-29T03:17:02;98016.01;;;22.70;30.53
66396;BME280;53207;51.378;-1.342;2022-12-29T03:19:35;98013.22;;;22.41;30.45
66396;BME280;53207;51.378;-1.342;2022-12-29T03:22:06;98018.33;;;22.40;30.50
66396;BME280;53207;51.378;-1.342;2022-12-29T03:24:37;98011.59;;;22.42;30.52
66396;BME280;53207;51.378;-1.342;2022-12-29T03:27:08;98014.08;;;22.36;30.56
66396;BME280;53207;51.378;-1.342;2022-12-29T03:29:40;98016.04;;;21.98;30.67
66396;BME280;53207;51.378;-1.342;2022-12-29T03:32:12;98011.05;;;22.60;30.52
66396;BME280;53207;51.378;-1.342;2022-12-29T03:34:42;98005.17;;;22.41;30.49
66396;BME280;53207;51.378;-1.342;2022-12-29T03:37:12;98013.79;;;22.30;30.54
66396;BME280;53207;51.378;-1.342;2022-12-29T03:39:39;98020.83;;;22.92;30.42
66396;BME280;53207;51.378;-1.342;2022-12-29T03:42:11;98013.04;;;22.17;30.60
66396;BME280;53207;51.378;-1.342;2022-12-29T03:44:41;98016.76;;;22.18;30.59
66396;BME280;53207;51.378;-1.342;2022-12-29T03:47:10;98019.52;;;22.20;30.63
66396;BME280;53207;51.378;-1.342;2022-12-29T03:49:38;98018.88;;;22.24;30.58
66396;BME280;53207;51.378;-1.342;2022-12-29T03:52:05;98028.27;;;22.38;30.61
66396;BME280;53207;51.378;-1.342;2022-12-29T03:54:32;98035.50;;;22.17;30.64
66396;BME280;53207;51.378;-1.342;2022-12-29T03:57:00;98037.78;;;22.37;30.62
66396;BME280;53207;51.378;-1.342;2022-12-29T03:59:27;98055.33;;;22.03;30.70
66396;BME280;53207;51.378;-1.342;2022-12-29T04:01:54;98043.26;;;22.35;30.62
66396;BME280;53207;51.378;-1.342;2022-12-29T04:04:22;98056.79;;;22.12;30.68
66396;BME280;53207;51.378;-1.342;2022-12-29T04:06:49;98060.95;;;22.07;30.67
66396;BME280;53207;51.378;-1.342;2022-12-29T04:09:16;98065.31;;;22.22;30.71
66396;BME280;53207;51.378;-1.342;2022-12-29T04:11:43;98065.20;;;22.03;30.69
66396;BME280;53207;51.378;-1.342;2022-12-29T04:14:11;98082.66;;;22.12;30.60
66396;BME280;53207;51.378;-1.342;2022-12-29T04:16:38;98094.54;;;21.99;30.64
66396;BME280;53207;51.378;-1.342;2022-12-29T04:19:06;98086.54;;;22.24;30.64
66396;BME280;53207;51.378;-1.342;2022-12-29T04:21:34;98104.10;;;22.26;30.62
66396;BME280;53207;51.378;-1.342;2022-12-29T04:24:01;98103.60;;;22.24;30.59
66396;BME280;53207;51.378;-1.342;2022-12-29T04:26:28;98114.23;;;22.45;30.60
66396;BME280;53207;51.378;-1.342;2022-12-29T04:28:55;98120.03;;;22.18;30.59
66396;BME280;53207;51.378;-1.342;2022-12-29T04:31:23;98119.81;;;22.23;30.52
66396;BME280;53207;51.378;-1.342;2022-12-29T04:33:50;98141.38;;;22.43;30.56
66396;BME280;53207;51.378;-1.342;2022-12-29T04:36:17;98137.49;;;22.17;30.59
66396;BME280;53207;51.378;-1.342;2022-12-29T04:38:44;98148.27;;;22.00;30.67
66396;BME280;53207;51.378;-1.342;2022-12-29T04:41:12;98156.31;;;22.10;30.65
66396;BME280;53207;51.378;-1.342;2022-12-29T04:43:39;98164.92;;;22.02;30.69
66396;BME280;53207;51.378;-1.342;2022-12-29T04:46:06;98170.08;;;22.09;30.66
66396;BME280;53207;51.378;-1.342;2022-12-29T04:48:34;98180.16;;;22.10;30.63
66396;BME280;53207;51.378;-1.342;2022-12-29T04:51:01;98193.22;;;21.96;30.60
66396;BME280;53207;51.378;-1.342;2022-12-29T04:53:28;98205.18;;;22.00;30.62
66396;BME280;53207;51.378;-1.342;2022-12-29T04:55:55;98212.83;;;22.11;30.56
66396;BME280;53207;51.378;-1.342;2022-12-29T04:58:23;98213.05;;;22.07;30.56
66396;BME280;53207;51.378;-1.342;2022-12-29T05:00:51;98227.93;;;21.99;30.62
66396;BME280;53207;51.378;-1.342;2022-12-29T05:03:18;98239.03;;;22.06;30.60
66396;BME280;53207;51.378;-1.342;2022-12-29T05:05:46;98241.32;;;21.83;30.55
66396;BME280;53207;51.378;-1.342;2022-12-29T05:08:13;98249.51;;;21.70;30.58
66396;BME280;53207;51.378;-1.342;2022-12-29T05:10:43;98252.44;;;22.02;30.58
66396;BME280;53207;51.378;-1.342;2022-12-29T05:13:10;98268.12;;;21.79;30.55
66396;BME280;53207;51.378;-1.342;2022-12-29T05:15:37;98270.93;;;21.88;30.60
66396;BME280;53207;51.378;-1.342;2022-12-29T05:18:04;98274.11;;;22.00;30.55
66396;BME280;53207;51.378;-1.342;2022-12-29T05:20:32;98284.38;;;21.81;30.50
66396;BME280;53207;51.378;-1.342;2022-12-29T05:22:59;98284.34;;;22.00;30.53
66396;BME280;53207;51.378;-1.342;2022-12-29T05:25:27;98293.18;;;21.91;30.56
66396;BME280;53207;51.378;-1.342;2022-12-29T05:27:53;98306.87;;;21.66;30.59
66396;BME280;53207;51.378;-1.342;2022-12-29T05:30:21;98323.85;;;21.87;30.60
66396;BME280;53207;51.378;-1.342;2022-12-29T05:32:48;98331.35;;;22.13;30.56
66396;BME280;53207;51.378;-1.342;2022-12-29T05:35:15;98330.09;;;21.78;30.60
66396;BME280;53207;51.378;-1.342;2022-12-29T05:37:43;98334.92;;;22.09;30.60
66396;BME280;53207;51.378;-1.342;2022-12-29T05:40:11;98341.38;;;21.82;30.56
66396;BME280;53207;51.378;-1.342;2022-12-29T05:42:38;98349.87;;;22.11;30.54
66396;BME280;53207;51.378;-1.342;2022-12-29T05:45:07;98344.93;;;21.88;30.50
66396;BME280;53207;51.378;-1.342;2022-12-29T05:47:34;98352.23;;;21.61;30.49
66396;BME280;53207;51.378;-1.342;2022-12-29T05:50:02;98370.43;;;21.92;30.46
66396;BME280;53207;51.378;-1.342;2022-12-29T05:52:29;98374.69;;;22.19;30.44
66396;BME280;53207;51.378;-1.342;2022-12-29T05:54:56;98379.11;;;21.86;30.41
66396;BME280;53207;51.378;-1.342;2022-12-29T05:57:24;98388.05;;;21.79;30.41
66396;BME280;53207;51.378;-1.342;2022-12-29T05:59:51;98396.98;;;22.11;30.47
66396;BME280;53207;51.378;-1.342;2022-12-29T06:02:18;98406.25;;;22.07;30.44
66396;BME280;53207;51.378;-1.342;2022-12-29T06:04:45;98411.63;;;21.66;30.39
66396;BME280;53207;51.378;-1.342;2022-12-29T06:07:13;98424.19;;;21.75;30.41
66396;BME280;53207;51.378;-1.342;2022-12-29T06:09:40;98423.46;;;22.06;30.42
66396;BME280;53207;51.378;-1.342;2022-12-29T06:12:07;98426.11;;;21.73;30.42
66396;BME280;53207;51.378;-1.342;2022-12-29T06:14:34;98428.01;;;22.04;30.40
66396;BME280;53207;51.378;-1.342;2022-12-29T06:17:02;98431.67;;;21.75;30.41
66396;BME280;53207;51.378;-1.342;2022-12-29T06:19:29;98436.26;;;22.06;30.39
66396;BME280;53207;51.378;-1.342;2022-12-29T06:21:56;98449.47;;;21.83;30.33
66396;BME280;53207;51.378;-1.342;2022-12-29T06:24:23;98458.98;;;21.78;30.34
66396;BME280;53207;51.378;-1.342;2022-12-29T06:26:51;98463.27;;;21.74;30.37
66396;BME280;53207;51.378;-1.342;2022-12-29T06:29:18;98475.33;;;21.95;30.36
66396;BME280;53207;51.378;-1.342;2022-12-29T06:31:45;98472.59;;;21.90;30.43
66396;BME280;53207;51.378;-1.342;2022-12-29T06:34:13;98477.60;;;21.99;30.32
66396;BME280;53207;51.378;-1.342;2022-12-29T06:36:41;98484.92;;;21.96;30.39
66396;BME280;53207;51.378;-1.342;2022-12-29T06:39:09;98490.06;;;21.92;30.43
66396;BME280;53207;51.378;-1.342;2022-12-29T06:41:36;98495.98;;;22.04;30.45
66396;BME280;53207;51.378;-1.342;2022-12-29T06:44:03;98502.16;;;22.13;30.47
66396;BME280;53207;51.378;-1.342;2022-12-29T06:46:31;98500.34;;;21.92;30.69
66396;BME280;53207;51.378;-1.342;2022-12-29T06:48:58;98498.33;;;21.60;30.80
66396;BME280;53207;51.378;-1.342;2022-12-29T06:51:25;98503.48;;;21.92;30.98
66396;BME280;53207;51.378;-1.342;2022-12-29T06:53:53;98501.04;;;22.00;30.97
66396;BME280;53207;51.378;-1.342;2022-12-29T06:56:20;98499.02;;;21.62;31.00
66396;BME280;53207;51.378;-1.342;2022-12-29T06:58:47;98507.28;;;21.98;30.98
66396;BME280;53207;51.378;-1.342;2022-12-29T07:01:14;98506.80;;;22.42;30.94
66396;BME280;53207;51.378;-1.342;2022-12-29T07:03:42;98517.72;;;22.38;30.84
66396;BME280;53207;51.378;-1.342;2022-12-29T07:06:09;98517.79;;;22.32;30.74
66396;BME280;53207;51.378;-1.342;2022-12-29T07:08:36;98520.23;;;22.45;30.67
66396;BME280;53207;51.378;-1.342;2022-12-29T07:11:04;98516.23;;;22.80;30.60
66396;BME280;53207;51.378;-1.342;2022-12-29T07:13:31;98522.13;;;22.72;30.52
66396;BME280;53207;51.378;-1.342;2022-12-29T07:15:58;98525.47;;;22.83;30.43
66396;BME280;53207;51.378;-1.342;2022-12-29T07:18:25;98529.89;;;22.90;30.37
66396;BME280;53207;51.378;-1.342;2022-12-29T07:20:53;98529.94;;;22.99;30.30
66396;BME280;53207;51.378;-1.342;2022-12-29T07:23:20;98536.69;;;23.07;30.27
66396;BME280;53207;51.378;-1.342;2022-12-29T07:25:47;98551.39;;;23.14;30.25
66396;BME280;53207;51.378;-1.342;2022-12-29T07:28:14;98542.59;;;23.20;30.20
66396;BME280;53207;51.378;-1.342;2022-12-29T07:30:42;98547.91;;;23.47;30.16
66396;BME280;53207;51.378;-1.342;2022-12-29T07:33:09;98546.92;;;23.54;30.12
66396;BME280;53207;51.378;-1.342;2022-12-29T07:35:36;98545.01;;;23.38;30.10
66396;BME280;53207;51.378;-1.342;2022-12-29T07:38:04;98550.35;;;23.39;30.07
66396;BME280;53207;51.378;-1.342;2022-12-29T07:40:31;98550.44;;;23.42;30.06
66396;BME280;53207;51.378;-1.342;2022-12-29T07:42:58;98550.89;;;23.42;30.07
66396;BME280;53207;51.378;-1.342;2022-12-29T07:45:25;98554.85;;;23.43;30.07
66396;BME280;53207;51.378;-1.342;2022-12-29T07:47:53;98562.55;;;23.43;30.10
66396;BME280;53207;51.378;-1.342;2022-12-29T07:50:20;98563.97;;;23.38;30.13
66396;BME280;53207;51.378;-1.342;2022-12-29T07:52:47;98566.36;;;23.41;30.12
66396;BME280;53207;51.378;-1.342;2022-12-29T07:55:15;98573.28;;;23.42;30.10
66396;BME280;53207;51.378;-1.342;2022-12-29T07:57:43;98575.47;;;23.43;30.07
66396;BME280;53207;51.378;-1.342;2022-12-29T08:00:11;98575.93;;;22.96;30.08
66396;BME280;53207;51.378;-1.342;2022-12-29T08:02:38;98575.03;;;23.44;29.99
66396;BME280;53207;51.378;-1.342;2022-12-29T08:05:06;98584.02;;;23.30;30.04
66396;BME280;53207;51.378;-1.342;2022-12-29T08:07:33;98590.09;;;23.28;29.98
66396;BME280;53207;51.378;-1.342;2022-12-29T08:10:01;98586.52;;;23.41;30.00
66396;BME280;53207;51.378;-1.342;2022-12-29T08:12:28;98596.46;;;23.25;29.96
66396;BME280;53207;51.378;-1.342;2022-12-29T08:14:56;98599.77;;;23.27;29.90
66396;BME280;53207;51.378;-1.342;2022-12-29T08:17:23;98601.99;;;23.46;29.96
66396;BME280;53207;51.378;-1.342;2022-12-29T08:19:51;98598.61;;;23.06;29.91
66396;BME280;53207;51.378;-1.342;2022-12-29T08:22:18;98601.95;;;23.64;29.87
66396;BME280;53207;51.378;-1.342;2022-12-29T08:24:45;98598.72;;;23.42;29.88
66396;BME280;53207;51.378;-1.342;2022-12-29T08:27:12;98607.48;;;23.23;29.83
66396;BME280;53207;51.378;-1.342;2022-12-29T08:29:40;98605.74;;;23.73;29.83
66396;BME280;53207;51.378;-1.342;2022-12-29T08:32:07;98608.66;;;23.24;29.83
66396;BME280;53207;51.378;-1.342;2022-12-29T08:34:34;98617.98;;;23.26;29.82
66396;BME280;53207;51.378;-1.342;2022-12-29T08:37:02;98621.26;;;23.27;29.80
66396;BME280;53207;51.378;-1.342;2022-12-29T08:39:29;98624.65;;;23.73;29.82
66396;BME280;53207;51.378;-1.342;2022-12-29T08:41:56;98639.30;;;23.77;29.81
66396;BME280;53207;51.378;-1.342;2022-12-29T08:44:23;98643.80;;;23.52;29.81
66396;BME280;53207;51.378;-1.342;2022-12-29T08:46:51;98651.68;;;23.15;29.87
66396;BME280;53207;51.378;-1.342;2022-12-29T08:49:18;98655.49;;;23.19;29.88
66396;BME280;53207;51.378;-1.342;2022-12-29T08:51:45;98660.44;;;23.49;29.83
66396;BME280;53207;51.378;-1.342;2022-12-29T08:54:12;98668.33;;;23.71;29.86
66396;BME280;53207;51.378;-1.342;2022-12-29T08:56:40;98673.60;;;23.34;29.88
66396;BME280;53207;51.378;-1.342;2022-12-29T08:59:07;98677.56;;;23.62;29.91
66396;BME280;53207;51.378;-1.342;2022-12-29T09:01:34;98675.66;;;23.54;29.97
66396;BME280;53207;51.378;-1.342;2022-12-29T09:04:02;98681.85;;;23.46;30.02
66396;BME280;53207;51.378;-1.342;2022-12-29T09:06:29;98692.60;;;22.96;30.04
66396;BME280;53207;51.378;-1.342;2022-12-29T09:08:56;98689.08;;;22.93;30.08
66396;BME280;53207;51.378;-1.342;2022-12-29T09:11:25;98697.98;;;22.92;30.09
66396;BME280;53207;51.378;-1.342;2022-12-29T09:13:52;98706.24;;;23.25;30.07
66396;BME280;53207;51.378;-1.342;2022-12-29T09:16:22;98711.97;;;23.29;29.97
66396;BME280;53207;51.378;-1.342;2022-12-29T09:18:49;98710.23;;;23.35;30.07
66396;BME280;53207;51.378;-1.342;2022-12-29T09:21:17;98713.09;;;23.09;30.06
66396;BME280;53207;51.378;-1.342;2022-12-29T09:23:44;98709.51;;;23.37;29.94
66396;BME280;53207;51.378;-1.342;2022-12-29T09:26:11;98721.73;;;23.20;29.94
66396;BME280;53207;51.378;-1.342;2022-12-29T09:28:39;98733.78;;;23.18;29.94
66396;BME280;53207;51.378;-1.342;2022-12-29T09:31:06;98734.12;;;23.32;29.97
66396;BME280;53207;51.378;-1.342;2022-12-29T09:33:33;98734.15;;;23.05;30.02
66396;BME280;53207;51.378;-1.342;2022-12-29T09:36:01;98734.13;;;22.80;29.93
66396;BME280;53207;51.378;-1.342;2022-12-29T09:38:29;98735.41;;;23.11;29.96
66396;BME280;53207;51.378;-1.342;2022-12-29T09:41:01;98740.97;;;23.07;29.96
66396;BME280;53207;51.378;-1.342;2022-12-29T09:43:45;98738.05;;;23.00;29.96
66396;BME280;53207;51.378;-1.342;2022-12-29T09:46:23;98734.61;;;22.73;29.96
66396;BME280;53207;51.378;-1.342;2022-12-29T09:49:04;98737.56;;;22.74;29.93
66396;BME280;53207;51.378;-1.342;2022-12-29T09:51:36;98742.09;;;23.21;29.92
66396;BME280;53207;51.378;-1.342;2022-12-29T09:54:24;98752.52;;;23.12;29.99
66396;BME280;53207;51.378;-1.342;2022-12-29T09:56:55;98759.74;;;23.11;29.92
66396;BME280;53207;51.378;-1.342;2022-12-29T09:59:36;98761.29;;;23.08;29.91
66396;BME280;53207;51.378;-1.342;2022-12-29T10:02:12;98767.44;;;22.83;30.01
66396;BME280;53207;51.378;-1.342;2022-12-29T10:04:43;98772.89;;;22.99;29.97
66396;BME280;53207;51.378;-1.342;2022-12-29T10:07:15;98776.93;;;22.93;30.06
66396;BME280;53207;51.378;-1.342;2022-12-29T10:09:53;98782.13;;;22.88;30.15
66396;BME280;53207;51.378;-1.342;2022-12-29T10:12:26;98783.83;;;22.83;30.15
66396;BME280;53207;51.378;-1.342;2022-12-29T10:15:03;98789.52;;;22.87;30.09
66396;BME280;53207;51.378;-1.342;2022-12-29T10:17:39;98788.53;;;22.82;30.12
66396;BME280;53207;51.378;-1.342;2022-12-29T10:20:20;98797.42;;;22.74;30.15
66396;BME280;53207;51.378;-1.342;2022-12-29T10:23:06;98799.78;;;22.79;30.13
66396;BME280;53207;51.378;-1.342;2022-12-29T10:25:39;98803.14;;;22.32;30.06
66396;BME280;53207;51.378;-1.342;2022-12-29T10:28:17;98804.58;;;22.84;30.04
66396;BME280;53207;51.378;-1.342;2022-12-29T10:30:48;98812.04;;;22.80;30.07
66396;BME280;53207;51.378;-1.342;2022-12-29T10:33:19;98814.83;;;22.53;30.12
66396;BME280;53207;51.378;-1.342;2022-12-29T10:35:48;98824.27;;;22.92;30.10
66396;BME280;53207;51.378;-1.342;2022-12-29T10:38:22;98828.02;;;22.65;30.08
66396;BME280;53207;51.378;-1.342;2022-12-29T10:40:56;98832.86;;;22.61;30.06
66396;BME280;53207;51.378;-1.342;2022-12-29T10:43:26;98838.02;;;22.71;30.09
66396;BME280;53207;51.378;-1.342;2022-12-29T10:45:56;98830.22;;;22.55;30.11
66396;BME280;53207;51.378;-1.342;2022-12-29T10:48:28;98831.08;;;22.59;30.09
66396;BME280;53207;51.378;-1.342;2022-12-29T10:50:59;98832.99;;;22.38;30.11
66396;BME280;53207;51.378;-1.342;2022-12-29T10:53:32;98837.42;;;22.57;30.05
66396;BME280;53207;51.378;-1.342;2022-12-29T10:56:01;98840.92;;;22.55;30.11
66396;BME280;53207;51.378;-1.342;2022-12-29T10:58:30;98841.43;;;22.48;30.16
66396;BME280;53207;51.378;-1.342;2022-12-29T11:00:58;98847.40;;;22.30;30.24
66396;BME280;53207;51.378;-1.342;2022-12-29T11:03:43;98846.00;;;22.33;30.18
66396;BME280;53207;51.378;-1.342;2022-12-29T11:06:17;98845.95;;;22.35;30.24
66396;BME280;53207;51.378;-1.342;2022-12-29T11:08:53;98853.58;;;22.33;30.20
66396;BME280;53207;51.378;-1.342;2022-12-29T11:11:24;98849.90;;;22.54;30.23
66396;BME280;53207;51.378;-1.342;2022-12-29T11:13:58;98853.30;;;22.36;30.16
66396;BME280;53207;51.378;-1.342;2022-12-29T11:16:31;98861.73;;;22.45;30.32
66396;BME280;53207;51.378;-1.342;2022-12-29T11:18:59;98854.78;;;22.22;30.28
66396;BME280;53207;51.378;-1.342;2022-12-29T11:21:32;98851.05;;;22.24;30.30
66396;BME280;53207;51.378;-1.342;2022-12-29T11:24:00;98852.88;;;22.24;30.26
66396;BME280;53207;51.378;-1.342;2022-12-29T11:26:28;98857.93;;;22.18;30.32
66396;BME280;53207;51.378;-1.342;2022-12-29T11:29:16;98857.26;;;22.05;30.34
66396;BME280;53207;51.378;-1.342;2022-12-29T11:31:46;98854.76;;;22.38;30.29
66396;BME280;53207;51.378;-1.342;2022-12-29T11:34:20;98865.43;;;22.18;30.29
66396;BME280;53207;51.378;-1.342;2022-12-29T11:36:49;98867.22;;;22.68;30.34
66396;BME280;53207;51.378;-1.342;2022-12-29T11:39:28;98861.04;;;22.06;30.27
66396;BME280;53207;51.378;-1.342;2022-12-29T11:41:57;98872.91;;;22.36;30.35
66396;BME280;53207;51.378;-1.342;2022-12-29T11:44:25;98878.42;;;22.28;30.31
66396;BME280;53207;51.378;-1.342;2022-12-29T11:46:54;98879.77;;;22.37;30.25
66396;BME280;53207;51.378;-1.342;2022-12-29T11:49:23;98878.18;;;22.27;30.24
66396;BME280;53207;51.378;-1.342;2022-12-29T11:51:53;98874.12;;;22.22;30.27
66396;BME280;53207;51.378;-1.342;2022-12-29T11:54:24;98877.04;;;21.89;30.35
66396;BME280;53207;51.378;-1.342;2022-12-29T11:56:53;98879.05;;;22.28;30.25
66396;BME280;53207;51.378;-1.342;2022-12-29T11:59:36;98876.36;;;22.30;30.24
66396;BME280;53207;51.378;-1.342;2022-12-29T12:03:18;98882.43;;;22.32;30.22
66396;BME280;53207;51.378;-1.342;2022-12-29T12:05:50;98858.81;;;21.96;30.24
66396;BME280;53207;51.378;-1.342;2022-12-29T12:08:24;98866.72;;;22.19;30.26
66396;BME280;53207;51.378;-1.342;2022-12-29T12:10:59;98871.95;;;22.20;30.24
66396;BME280;53207;51.378;-1.342;2022-12-29T12:13:36;98870.81;;;21.81;30.18
66396;BME280;53207;51.378;-1.342;2022-12-29T12:16:08;98869.86;;;22.04;30.20
66396;BME280;53207;51.378;-1.342;2022-12-29T12:18:41;98877.21;;;22.41;30.20
66396;BME280;53207;51.378;-1.342;2022-12-29T12:21:20;98867.86;;;22.19;30.17
66396;BME280;53207;51.378;-1.342;2022-12-29T12:24:00;98871.06;;;21.91;30.17
66396;BME280;53207;51.378;-1.342;2022-12-29T12:26:37;98876.25;;;22.44;30.09
66396;BME280;53207;51.378;-1.342;2022-12-29T12:29:12;98886.20;;;22.09;30.19
66396;BME280;53207;51.378;-1.342;2022-12-29T12:31:45;98886.59;;;22.13;30.14
66396;BME280;53207;51.378;-1.342;2022-12-29T12:34:17;98892.62;;;22.06;30.14
66396;BME280;53207;51.378;-1.342;2022-12-29T12:36:57;98894.56;;;22.13;30.14
66396;BME280;53207;51.378;-1.342;2022-12-29T12:39:35;98897.31;;;21.98;30.19
66396;BME280;53207;51.378;-1.342;2022-12-29T12:42:13;98901.10;;;22.02;30.17
66396;BME280;53207;51.378;-1.342;2022-12-29T12:44:49;98902.38;;;22.11;30.11
66396;BME280;53207;51.378;-1.342;2022-12-29T12:47:32;98895.32;;;21.89;30.10
66396;BME280;53207;51.378;-1.342;2022-12-29T12:50:17;98902.01;;;21.86;30.10
66396;BME280;53207;51.378;-1.342;2022-12-29T12:53:02;98900.32;;;22.05;30.14
66396;BME280;53207;51.378;-1.342;2022-12-29T12:55:44;98900.90;;;22.04;30.14
66396;BME280;53207;51.378;-1.342;2022-12-29T12:58:20;98904.97;;;22.06;30.07
66396;BME280;53207;51.378;-1.342;2022-12-29T13:01:01;98895.90;;;22.26;30.09
66396;BME280;53207;51.378;-1.342;2022-12-29T13:03:44;98899.36;;;22.29;30.10
66396;BME280;53207;51.378;-1.342;2022-12-29T13:06:21;98900.79;;;22.28;30.14
66396;BME280;53207;51.378;-1.342;2022-12-29T13:09:10;98900.43;;;21.95;30.12